Time;durP1;ratioP1;P1;durP2;ratioP2;P2;SDS_P1;SDS_P2;PMS_P1;PMS_P2;Temp;Humidity;BMP_temperature;BMP_pressure;BME280_temperature;BME280_humidity;BME280_pressure;Samples;Min_cycle;Max_cycle;Signal;HPM_P1;HPM_P2
2021/12/16 00:09:01;;;;;;;43.30;24.58;;;;;;;;;;5064376;28;20059;-65
2021/12/16 00:33:43;;;;;;;41.97;24.38;;;;;;;;;;5060284;28;20056;-65
2021/12/16 00:36:10;;;;;;;47.47;24.70;;;;;;;;;;5055140;28;20055;-65
2021/12/16 00:38:37;;;;;;;47.42;24.95;;;;;;;;;;5065562;28;20071;-65
2021/12/16 00:41:03;;;;;;;46.60;24.60;;;;;;;;;;5065147;28;20435;-65
2021/12/16 00:44:21;;;;;;;43.78;24.08;;;;;;;;;;5065252;28;20672;-65
2021/12/16 00:46:54;;;;;;;48.00;25.23;;;;;;;;;;5057774;28;20166;-65
2021/12/16 00:49:32;;;;;;;41.08;23.35;;;;;;;;;;5051837;28;20054;-65
2021/12/16 00:54:51;;;;;;;41.35;22.90;;;;;;;;;;5057941;28;20074;-65
2021/12/16 00:57:24;;;;;;;44.03;23.50;;;;;;;;;;5057926;28;20048;-65
2021/12/16 00:59:52;;;;;;;42.17;23.27;;;;;;;;;;5057576;28;20052;-65
2021/12/16 01:05:42;;;;;;;46.75;23.75;;;;;;;;;;5058592;28;20056;-65
2021/12/16 01:08:24;;;;;;;48.88;24.45;;;;;;;;;;5057483;28;21224;-65
2021/12/16 01:33:38;;;;;;;49.50;25.67;;;;;;;;;;5063407;28;20052;-65
2021/12/16 01:49:31;;;;;;;55.08;26.67;;;;;;;;;;5068364;28;20057;-65
2021/12/16 01:54:48;;;;;;;52.97;26.33;;;;;;;;;;5062086;28;20092;-65
2021/12/16 01:57:23;;;;;;;47.42;24.35;;;;;;;;;;5063965;28;20060;-65
2021/12/16 01:59:59;;;;;;;50.40;26.27;;;;;;;;;;5067282;28;20497;-65
2021/12/16 02:03:08;;;;;;;52.33;24.63;;;;;;;;;;5065553;28;20075;-65
2021/12/16 02:10:38;;;;;;;48.20;25.00;;;;;;;;;;5065814;28;20053;-65
2021/12/16 02:29:48;;;;;;;41.75;24.27;;;;;;;;;;5068509;28;20044;-65
2021/12/16 02:35:24;;;;;;;42.17;22.55;;;;;;;;;;5066386;28;20056;-65
2021/12/16 02:37:48;;;;;;;41.17;21.35;;;;;;;;;;5062414;28;20417;-65
2021/12/16 02:40:16;;;;;;;45.80;23.67;;;;;;;;;;5059997;28;20064;-65
2021/12/16 02:43:05;;;;;;;42.90;24.52;;;;;;;;;;5058110;28;20409;-65
2021/12/16 02:48:37;;;;;;;41.28;23.73;;;;;;;;;;5059318;28;20048;-65
2021/12/16 02:51:24;;;;;;;49.75;23.88;;;;;;;;;;5059340;28;20052;-65
2021/12/16 02:53:55;;;;;;;52.03;24.63;;;;;;;;;;5058739;28;20058;-65
2021/12/16 02:56:22;;;;;;;46.60;24.50;;;;;;;;;;5051077;28;20666;-65
2021/12/16 02:58:51;;;;;;;49.05;24.98;;;;;;;;;;5069677;28;20048;-65
2021/12/16 03:01:29;;;;;;;45.63;23.67;;;;;;;;;;5067069;28;20487;-65
2021/12/16 03:03:57;;;;;;;42.58;23.33;;;;;;;;;;5062016;28;20048;-65
2021/12/16 03:06:25;;;;;;;41.83;23.20;;;;;;;;;;5062437;28;20056;-65
2021/12/16 03:08:52;;;;;;;41.28;22.42;;;;;;;;;;5059507;28;20048;-65
2021/12/16 03:11:26;;;;;;;42.97;22.95;;;;;;;;;;5061142;28;20698;-65
2021/12/16 03:16:49;;;;;;;46.55;22.58;;;;;;;;;;5063229;28;20052;-65
2021/12/16 03:19:23;;;;;;;43.33;21.80;;;;;;;;;;5058568;28;20052;-65
2021/12/16 03:21:54;;;;;;;41.10;21.95;;;;;;;;;;5064555;28;20052;-65
2021/12/16 03:32:56;;;;;;;37.63;21.95;;;;;;;;;;5059430;28;20147;-65
2021/12/16 03:35:30;;;;;;;36.90;21.65;;;;;;;;;;5064741;28;20432;-65
2021/12/16 03:37:58;;;;;;;42.58;21.23;;;;;;;;;;5067141;28;20803;-65
2021/12/16 03:40:25;;;;;;;39.15;21.23;;;;;;;;;;5067130;28;20048;-65
2021/12/16 03:42:55;;;;;;;44.45;21.30;;;;;;;;;;5062701;28;20044;-65
2021/12/16 03:48:14;;;;;;;40.75;22.50;;;;;;;;;;5061752;28;20051;-65
2021/12/16 03:50:41;;;;;;;46.75;23.77;;;;;;;;;;5061019;28;20071;-65
2021/12/16 03:53:07;;;;;;;37.50;22.02;;;;;;;;;;5063058;28;20052;-65
2021/12/16 03:55:35;;;;;;;46.97;22.60;;;;;;;;;;5064365;28;20044;-65
2021/12/16 03:58:01;;;;;;;34.90;20.92;;;;;;;;;;5066326;28;20083;-65
2021/12/16 04:00:29;;;;;;;39.55;21.38;;;;;;;;;;5063817;28;20052;-65
2021/12/16 04:02:56;;;;;;;;;;;;;;;;;;5065258;28;20159;-65
2021/12/16 04:05:23;;;;;;;38.67;20.95;;;;;;;;;;5064177;28;19928;-65
2021/12/16 04:07:49;;;;;;;38.80;22.15;;;;;;;;;;5058369;28;20413;-65
2021/12/16 04:10:20;;;;;;;41.60;21.38;;;;;;;;;;5058368;28;20037;-65
2021/12/16 04:12:48;;;;;;;39.20;20.58;;;;;;;;;;5048874;28;20043;-65
2021/12/16 04:15:15;;;;;;;47.90;21.75;;;;;;;;;;5061549;28;21520;-65
2021/12/16 04:17:41;;;;;;;45.97;21.05;;;;;;;;;;5060725;28;20437;-65
2021/12/16 04:20:09;;;;;;;41.50;21.58;;;;;;;;;;5066023;28;20048;-65
2021/12/16 04:22:42;;;;;;;40.97;19.25;;;;;;;;;;5059486;28;20045;-65
2021/12/16 04:25:10;;;;;;;37.85;19.42;;;;;;;;;;5050053;28;20044;-65
2021/12/16 04:27:37;;;;;;;43.38;20.98;;;;;;;;;;5068354;28;20532;-65
2021/12/16 04:30:05;;;;;;;42.58;21.05;;;;;;;;;;5065133;28;20049;-65
2021/12/16 04:32:32;;;;;;;42.60;20.20;;;;;;;;;;5063930;28;20058;-65
2021/12/16 04:34:58;;;;;;;41.47;20.85;;;;;;;;;;5060124;28;20055;-65
2021/12/16 04:37:24;;;;;;;41.17;20.15;;;;;;;;;;5063103;28;20401;-65
2021/12/16 04:39:51;;;;;;;44.53;21.60;;;;;;;;;;5063830;28;20051;-64
2021/12/16 04:42:19;;;;;;;46.28;21.95;;;;;;;;;;5064535;28;20048;-65
2021/12/16 04:44:45;;;;;;;44.90;21.85;;;;;;;;;;5058061;28;20464;-65
2021/12/16 04:47:12;;;;;;;47.50;21.73;;;;;;;;;;5064758;28;20039;-65
2021/12/16 04:49:39;;;;;;;44.22;22.27;;;;;;;;;;5065898;28;20441;-65
2021/12/16 04:52:09;;;;;;;46.70;23.17;;;;;;;;;;5059461;28;20052;-65
2021/12/16 04:54:36;;;;;;;42.55;20.25;;;;;;;;;;5058724;28;20052;-65
2021/12/16 04:57:03;;;;;;;42.83;21.02;;;;;;;;;;5059294;28;20075;-65
2021/12/16 04:59:30;;;;;;;45.10;21.20;;;;;;;;;;5064849;28;20071;-65
2021/12/16 05:01:58;;;;;;;44.03;21.05;;;;;;;;;;5048832;28;20052;-65
2021/12/16 05:04:24;;;;;;;41.53;20.80;;;;;;;;;;5064467;28;20047;-65
2021/12/16 05:06:51;;;;;;;45.08;21.67;;;;;;;;;;5057349;28;20561;-65
2021/12/16 05:09:51;;;;;;;41.47;21.10;;;;;;;;;;5057563;28;20658;-65
2021/12/16 05:12:05;;;;;;;38.47;20.40;;;;;;;;;;5057274;28;20048;-65
2021/12/16 05:14:32;;;;;;;37.83;20.40;;;;;;;;;;5057893;28;20049;-65
2021/12/16 05:16:58;;;;;;;40.35;19.60;;;;;;;;;;5058569;28;20307;-65
2021/12/16 05:19:24;;;;;;;46.00;19.60;;;;;;;;;;5063082;28;20052;-65
2021/12/16 05:24:13;;;;;;;37.90;19.73;;;;;;;;;;5064209;28;20048;-65
2021/12/16 05:24:41;;;;;;;38.22;18.90;;;;;;;;;;5064648;28;20048;-65
2021/12/16 05:27:09;;;;;;;50.17;19.35;;;;;;;;;;5064396;28;20055;-65
2021/12/16 05:29:36;;;;;;;36.15;19.00;;;;;;;;;;5064511;28;20051;-65
2021/12/16 05:32:03;;;;;;;44.67;19.40;;;;;;;;;;5064480;28;20739;-65
2021/12/16 05:34:29;;;;;;;40.55;18.38;;;;;;;;;;5057492;28;20056;-65
2021/12/16 05:36:55;;;;;;;39.83;19.55;;;;;;;;;;5055641;28;20052;-64
2021/12/16 05:39:22;;;;;;;47.75;19.55;;;;;;;;;;5062830;28;20040;-65
2021/12/16 05:41:49;;;;;;;39.67;18.83;;;;;;;;;;5063558;28;20044;-65
2021/12/16 05:44:16;;;;;;;61.35;20.83;;;;;;;;;;5062984;28;20074;-65
2021/12/16 05:46:43;;;;;;;53.30;18.83;;;;;;;;;;5063539;28;20053;-65
2021/12/16 05:49:10;;;;;;;36.63;18.55;;;;;;;;;;5064208;28;20045;-65
2021/12/16 05:51:38;;;;;;;36.03;18.40;;;;;;;;;;5064245;28;20122;-65
2021/12/16 05:54:06;;;;;;;82.95;20.38;;;;;;;;;;5062753;28;20063;-65
2021/12/16 05:56:33;;;;;;;74.63;20.03;;;;;;;;;;5063010;28;20044;-65
2021/12/16 05:58:59;;;;;;;75.43;20.23;;;;;;;;;;5064386;28;20052;-65
2021/12/16 06:01:28;;;;;;;49.08;18.45;;;;;;;;;;5060959;28;20689;-65
2021/12/16 06:03:54;;;;;;;;;;;;;;;;;;5059718;28;20052;-65
2021/12/16 06:06:21;;;;;;;55.45;19.20;;;;;;;;;;5061081;28;19936;-65
2021/12/16 06:08:48;;;;;;;48.38;20.25;;;;;;;;;;5061467;28;20052;-65
2021/12/16 06:13:47;;;;;;;59.60;18.38;;;;;;;;;;5066633;28;20046;-65
2021/12/16 06:27:15;;;;;;;65.93;17.85;;;;;;;;;;5057116;28;20491;-65
2021/12/16 06:29:44;;;;;;;85.95;18.77;;;;;;;;;;5058385;28;20504;-65
2021/12/16 06:32:10;;;;;;;63.78;17.60;;;;;;;;;;5061479;28;20049;-65
2021/12/16 06:34:37;;;;;;;85.45;18.45;;;;;;;;;;5063256;28;20052;-65
2021/12/16 06:37:04;;;;;;;85.75;18.10;;;;;;;;;;5068277;28;20052;-65
2021/12/16 06:39:30;;;;;;;121.72;18.85;;;;;;;;;;5065256;28;20045;-65
2021/12/16 06:41:58;;;;;;;83.18;17.90;;;;;;;;;;5065197;28;20083;-65
2021/12/16 06:44:30;;;;;;;104.13;18.27;;;;;;;;;;5067521;28;20052;-65
2021/12/16 06:47:06;;;;;;;83.68;17.40;;;;;;;;;;5063244;28;20071;-65
2021/12/16 06:49:34;;;;;;;75.18;18.05;;;;;;;;;;5065056;28;20040;-65
2021/12/16 06:52:04;;;;;;;78.68;16.23;;;;;;;;;;5053960;28;20049;-65
2021/12/16 06:54:42;;;;;;;64.68;18.27;;;;;;;;;;5064093;28;20051;-65
2021/12/16 06:57:21;;;;;;;95.30;16.48;;;;;;;;;;5060628;28;20051;-65
2021/12/16 07:00:07;;;;;;;108.10;20.77;;;;;;;;;;5061155;28;20048;-64
2021/12/16 07:05:12;;;;;;;101.63;17.08;;;;;;;;;;5059062;28;21307;-65
2021/12/16 07:07:39;;;;;;;104.82;16.42;;;;;;;;;;5059063;28;20045;-65
2021/12/16 07:10:07;;;;;;;133.32;17.17;;;;;;;;;;5058764;28;20048;-65
2021/12/16 07:12:37;;;;;;;144.63;18.73;;;;;;;;;;5059277;28;20052;-65
2021/12/16 07:15:06;;;;;;;64.50;17.10;;;;;;;;;;5061052;28;20087;-65
2021/12/16 07:17:33;;;;;;;79.05;18.50;;;;;;;;;;5067740;28;20060;-65
2021/12/16 07:20:00;;;;;;;62.95;15.73;;;;;;;;;;5065223;28;20059;-65
2021/12/16 07:22:26;;;;;;;70.75;16.58;;;;;;;;;;5066286;28;20071;-66
2021/12/16 07:24:53;;;;;;;76.57;16.95;;;;;;;;;;5068662;28;20049;-65
2021/12/16 07:27:19;;;;;;;117.82;17.17;;;;;;;;;;5061750;28;20057;-65
2021/12/16 07:29:45;;;;;;;71.15;16.05;;;;;;;;;;5059526;28;20049;-65
2021/12/16 07:32:12;;;;;;;85.38;16.30;;;;;;;;;;5066071;28;20383;-64
2021/12/16 07:34:38;;;;;;;124.93;17.23;;;;;;;;;;5065909;28;20060;-65
2021/12/16 07:37:06;;;;;;;94.68;15.82;;;;;;;;;;5063353;28;20064;-65
2021/12/16 07:39:38;;;;;;;57.72;15.85;;;;;;;;;;5066360;28;20280;-65
2021/12/16 07:42:07;;;;;;;131.77;16.15;;;;;;;;;;5059783;28;20504;-65
2021/12/16 07:44:34;;;;;;;150.43;17.73;;;;;;;;;;5066084;28;20048;-65
2021/12/16 07:47:03;;;;;;;63.10;14.43;;;;;;;;;;5064286;28;20044;-65
2021/12/16 07:49:34;;;;;;;116.80;17.80;;;;;;;;;;5062895;28;20053;-65
2021/12/16 07:52:02;;;;;;;130.02;14.27;;;;;;;;;;5056741;28;20056;-65
2021/12/16 07:54:28;;;;;;;93.30;15.60;;;;;;;;;;5065233;28;20075;-65
2021/12/16 07:56:55;;;;;;;111.65;15.55;;;;;;;;;;5066634;28;20715;-64
2021/12/16 07:59:23;;;;;;;71.28;15.00;;;;;;;;;;5062896;28;20052;-65
2021/12/16 08:01:49;;;;;;;100.78;15.05;;;;;;;;;;5047513;28;20041;-65
2021/12/16 08:04:21;;;;;;;71.10;16.70;;;;;;;;;;5060558;28;20063;-65
2021/12/16 08:06:49;;;;;;;94.40;15.95;;;;;;;;;;5065146;28;20049;-65
2021/12/16 08:09:16;;;;;;;131.87;15.40;;;;;;;;;;5062160;28;20264;-65
2021/12/16 08:11:43;;;;;;;110.20;16.13;;;;;;;;;;5056135;28;20136;-65
2021/12/16 08:14:10;;;;;;;89.63;15.68;;;;;;;;;;5056022;28;20059;-64
2021/12/16 08:16:37;;;;;;;46.47;13.43;;;;;;;;;;5056409;28;20212;-64
2021/12/16 08:19:04;;;;;;;75.57;15.10;;;;;;;;;;5056853;28;20048;-65
2021/12/16 08:21:30;;;;;;;71.38;14.52;;;;;;;;;;5064531;28;20070;-65
2021/12/16 08:23:58;;;;;;;83.00;16.13;;;;;;;;;;5062312;28;20052;-64
2021/12/16 08:26:24;;;;;;;110.25;16.30;;;;;;;;;;5061832;28;20048;-64
2021/12/16 08:28:50;;;;;;;65.53;15.30;;;;;;;;;;5059008;28;20060;-65
2021/12/16 08:31:17;;;;;;;65.03;14.88;;;;;;;;;;5060541;28;20048;-64
2021/12/16 08:33:43;;;;;;;75.30;14.77;;;;;;;;;;5060125;28;20441;-65
2021/12/16 08:36:10;;;;;;;63.13;15.77;;;;;;;;;;5061138;28;20564;-65
2021/12/16 08:38:36;;;;;;;52.05;15.27;;;;;;;;;;5047413;28;20053;-64
2021/12/16 08:41:07;;;;;;;64.95;15.93;;;;;;;;;;5061769;28;20063;-65
2021/12/16 08:43:35;;;;;;;47.63;15.27;;;;;;;;;;5061348;28;20405;-65
2021/12/16 08:46:03;;;;;;;61.70;14.85;;;;;;;;;;5062540;28;20054;-65
2021/12/16 08:48:29;;;;;;;48.80;14.30;;;;;;;;;;5059827;28;20254;-65
2021/12/16 08:50:56;;;;;;;59.72;14.27;;;;;;;;;;5060157;28;20072;-65
2021/12/16 08:53:23;;;;;;;53.45;14.60;;;;;;;;;;5058405;28;20079;-65
2021/12/16 08:55:50;;;;;;;84.70;15.85;;;;;;;;;;5060731;28;20064;-65
2021/12/16 08:58:17;;;;;;;54.00;13.90;;;;;;;;;;5064096;28;20064;-65
2021/12/16 09:00:46;;;;;;;54.67;13.95;;;;;;;;;;5060345;28;20064;-65
2021/12/16 09:03:13;;;;;;;67.05;15.98;;;;;;;;;;5046988;28;20052;-65
2021/12/16 09:05:39;;;;;;;50.58;12.85;;;;;;;;;;5057368;28;20126;-65
2021/12/16 09:08:06;;;;;;;60.15;14.00;;;;;;;;;;5061672;28;20059;-65
2021/12/16 09:10:33;;;;;;;88.25;17.33;;;;;;;;;;5062147;28;20043;-65
2021/12/16 09:13:03;;;;;;;100.25;18.02;;;;;;;;;;5062063;28;20059;-65
2021/12/16 09:15:38;;;;;;;104.80;15.23;;;;;;;;;;5062623;28;20050;-65
2021/12/16 09:18:04;;;;;;;96.05;15.75;;;;;;;;;;5062544;28;20547;-65
2021/12/16 09:20:31;;;;;;;81.72;15.27;;;;;;;;;;5062488;28;20084;-65
2021/12/16 09:22:58;;;;;;;77.88;16.27;;;;;;;;;;5059557;28;20051;-65
2021/12/16 09:25:24;;;;;;;40.92;13.77;;;;;;;;;;5060903;28;20048;-65
2021/12/16 09:27:51;;;;;;;50.20;15.00;;;;;;;;;;5060417;28;20486;-65
2021/12/16 09:30:20;;;;;;;37.38;13.13;;;;;;;;;;5059202;28;20059;-65
2021/12/16 09:32:48;;;;;;;57.88;14.70;;;;;;;;;;5060477;28;20063;-64
2021/12/16 09:35:14;;;;;;;33.03;12.80;;;;;;;;;;5055018;28;20055;-65
2021/12/16 09:37:41;;;;;;;80.78;15.38;;;;;;;;;;5055483;28;20052;-65
2021/12/16 09:40:10;;;;;;;33.15;13.38;;;;;;;;;;5060136;28;20472;-65
2021/12/16 09:42:37;;;;;;;70.63;15.05;;;;;;;;;;5061356;28;20343;-65
2021/12/16 09:45:05;;;;;;;32.28;14.65;;;;;;;;;;5057972;28;20048;-65
2021/12/16 09:47:31;;;;;;;52.20;14.52;;;;;;;;;;5063485;28;20901;-65
2021/12/16 09:49:58;;;;;;;45.67;14.27;;;;;;;;;;5060581;28;20059;-64
2021/12/16 09:52:24;;;;;;;68.65;15.02;;;;;;;;;;5059910;28;20414;-65
2021/12/16 09:54:51;;;;;;;38.60;13.70;;;;;;;;;;5058631;28;20045;-65
2021/12/16 09:57:17;;;;;;;37.53;14.07;;;;;;;;;;5054551;28;20056;-64
2021/12/16 09:59:44;;;;;;;54.60;14.57;;;;;;;;;;5057780;28;20044;-65
2021/12/16 10:02:13;;;;;;;41.17;13.30;;;;;;;;;;5062358;28;20150;-65
2021/12/16 10:04:39;;;;;;;;;;;;;;;;;;5064335;28;20694;-64
2021/12/16 10:07:10;;;;;;;56.75;13.88;;;;;;;;;;5066438;28;19964;-64
2021/12/16 10:09:37;;;;;;;62.65;13.40;;;;;;;;;;5065392;28;20044;-64
2021/12/16 10:12:10;;;;;;;42.65;13.63;;;;;;;;;;5065176;28;20053;-64
2021/12/16 10:15:03;;;;;;;48.75;13.55;;;;;;;;;;5066223;28;20060;-65
2021/12/16 10:17:32;;;;;;;58.35;14.73;;;;;;;;;;5061146;28;20055;-63
2021/12/16 10:20:04;;;;;;;79.30;15.45;;;;;;;;;;5060488;28;20582;-65
2021/12/16 10:22:37;;;;;;;61.28;13.68;;;;;;;;;;5066454;28;20053;-64
2021/12/16 10:25:33;;;;;;;80.95;15.15;;;;;;;;;;5062075;28;20938;-65
2021/12/16 10:27:59;;;;;;;61.70;15.02;;;;;;;;;;5043470;28;20045;-64
2021/12/16 10:30:36;;;;;;;47.92;13.65;;;;;;;;;;5061118;28;20583;-64
2021/12/16 10:33:41;;;;;;;42.22;15.00;;;;;;;;;;5063494;28;20058;-65
2021/12/16 10:36:07;;;;;;;48.45;14.63;;;;;;;;;;4998738;28;20404;-65
2021/12/16 10:38:39;;;;;;;61.95;14.93;;;;;;;;;;4998064;28;20058;-65
2021/12/16 10:41:06;;;;;;;48.67;14.40;;;;;;;;;;4989913;28;20054;-65
2021/12/16 10:43:38;;;;;;;58.35;15.10;;;;;;;;;;4998344;28;20042;-64
2021/12/16 10:46:08;;;;;;;45.80;14.35;;;;;;;;;;4989870;28;20050;-64
2021/12/16 10:48:36;;;;;;;41.45;14.25;;;;;;;;;;4998834;28;20037;-65
2021/12/16 10:51:07;;;;;;;45.53;14.83;;;;;;;;;;4998437;28;20395;-65
2021/12/16 10:53:45;;;;;;;46.03;14.77;;;;;;;;;;4997021;28;20298;-64
2021/12/16 10:56:12;;;;;;;36.45;14.38;;;;;;;;;;4990906;28;20058;-65
2021/12/16 10:59:01;;;;;;;41.13;14.68;;;;;;;;;;4998166;28;20418;-64
2021/12/16 11:01:43;;;;;;;64.50;14.93;;;;;;;;;;4996952;28;20049;-66
2021/12/16 11:04:15;;;;;;;51.85;14.27;;;;;;;;;;4997505;28;20553;-66
2021/12/16 11:06:44;;;;;;;51.72;13.70;;;;;;;;;;5022365;28;20543;-64
2021/12/16 11:09:29;;;;;;;76.40;14.85;;;;;;;;;;5041380;28;20048;-64
2021/12/16 11:12:14;;;;;;;36.63;15.32;;;;;;;;;;5057228;28;20059;-64
2021/12/16 11:14:42;;;;;;;64.03;14.55;;;;;;;;;;5054504;28;20045;-64
2021/12/16 11:17:10;;;;;;;49.03;16.30;;;;;;;;;;5062296;28;20545;-64
2021/12/16 11:20:15;;;;;;;61.75;15.25;;;;;;;;;;5059699;28;20156;-66
2021/12/16 11:22:44;;;;;;;32.73;14.03;;;;;;;;;;5017314;28;20576;-63
2021/12/16 11:25:21;;;;;;;50.78;14.93;;;;;;;;;;5018347;28;20046;-65
2021/12/16 11:27:50;;;;;;;96.55;17.45;;;;;;;;;;5044352;28;20536;-64
2021/12/16 11:30:23;;;;;;;43.90;14.63;;;;;;;;;;5066981;28;20040;-65
2021/12/16 11:32:51;;;;;;;51.58;15.02;;;;;;;;;;5066486;28;20512;-66
2021/12/16 11:35:30;;;;;;;37.40;14.27;;;;;;;;;;5066519;28;20478;-64
2021/12/16 11:37:58;;;;;;;52.05;15.70;;;;;;;;;;5060356;28;20068;-64
2021/12/16 11:40:25;;;;;;;76.63;16.27;;;;;;;;;;5057884;28;20052;-64
2021/12/16 11:43:02;;;;;;;32.38;14.43;;;;;;;;;;5061820;28;20044;-64
2021/12/16 11:45:37;;;;;;;34.85;13.55;;;;;;;;;;5065317;28;20051;-64
2021/12/16 11:48:04;;;;;;;31.17;13.63;;;;;;;;;;5058996;28;20044;-64
2021/12/16 11:50:32;;;;;;;45.22;14.68;;;;;;;;;;5057917;28;20049;-64
2021/12/16 11:52:59;;;;;;;87.27;14.80;;;;;;;;;;5059410;28;20049;-64
2021/12/16 11:55:25;;;;;;;78.38;13.00;;;;;;;;;;5062363;28;20300;-64
2021/12/16 11:57:54;;;;;;;49.65;13.57;;;;;;;;;;5068615;28;20052;-64
2021/12/16 12:00:25;;;;;;;47.95;12.88;;;;;;;;;;5060712;28;20045;-64
2021/12/16 12:02:57;;;;;;;40.17;13.70;;;;;;;;;;5064087;28;20049;-64
2021/12/16 12:05:28;;;;;;;51.53;12.93;;;;;;;;;;5066251;28;20050;-64
2021/12/16 12:08:00;;;;;;;48.22;12.90;;;;;;;;;;5059315;28;20417;-64
2021/12/16 12:10:35;;;;;;;32.78;13.98;;;;;;;;;;5067382;28;20043;-64
2021/12/16 12:13:06;;;;;;;46.47;13.75;;;;;;;;;;5064967;28;20053;-64
2021/12/16 12:15:34;;;;;;;45.00;12.60;;;;;;;;;;5053881;28;20478;-64
2021/12/16 12:18:07;;;;;;;36.35;13.18;;;;;;;;;;5038377;28;20040;-64
2021/12/16 12:20:37;;;;;;;37.28;13.60;;;;;;;;;;5060479;28;20050;-64
2021/12/16 12:23:05;;;;;;;59.15;13.75;;;;;;;;;;5060847;28;20048;-64
2021/12/16 12:25:31;;;;;;;37.72;14.00;;;;;;;;;;5066885;28;20049;-64
2021/12/16 12:27:57;;;;;;;30.65;14.20;;;;;;;;;;5064772;28;20511;-64
2021/12/16 12:30:24;;;;;;;30.13;13.38;;;;;;;;;;5065731;28;20206;-64
2021/12/16 12:32:51;;;;;;;36.67;15.77;;;;;;;;;;5065273;28;20052;-64
2021/12/16 12:35:25;;;;;;;32.88;14.20;;;;;;;;;;5064614;28;20103;-64
2021/12/16 12:37:53;;;;;;;51.92;15.73;;;;;;;;;;5066169;28;20508;-63
2021/12/16 12:40:28;;;;;;;53.47;14.32;;;;;;;;;;5064131;28;20052;-64
2021/12/16 12:42:56;;;;;;;58.35;14.68;;;;;;;;;;5061529;28;20506;-64
2021/12/16 12:45:24;;;;;;;41.22;15.00;;;;;;;;;;5067776;28;20045;-64
2021/12/16 12:47:51;;;;;;;;;;;;;;;;;;5058035;28;20044;-64
2021/12/16 12:50:17;;;;;;;49.78;14.45;;;;;;;;;;5046411;28;19931;-64
2021/12/16 12:52:49;;;;;;;38.80;13.35;;;;;;;;;;5057838;28;20048;-64
2021/12/16 12:55:18;;;;;;;36.28;14.38;;;;;;;;;;5059408;28;20058;-64
2021/12/16 12:57:45;;;;;;;43.60;13.60;;;;;;;;;;5064079;28;20056;-65
2021/12/16 13:00:32;;;;;;;35.65;14.52;;;;;;;;;;5064517;28;20496;-64
2021/12/16 13:03:01;;;;;;;30.55;13.45;;;;;;;;;;5044902;28;20055;-64
2021/12/16 13:05:28;;;;;;;35.13;15.25;;;;;;;;;;5055981;28;20056;-64
2021/12/16 13:07:58;;;;;;;91.85;15.48;;;;;;;;;;5059629;28;20040;-65
2021/12/16 13:10:29;;;;;;;52.63;15.55;;;;;;;;;;5064529;28;20059;-65
2021/12/16 13:13:17;;;;;;;33.15;14.38;;;;;;;;;;5061925;28;20078;-64
2021/12/16 13:15:53;;;;;;;29.05;14.57;;;;;;;;;;5063726;28;20048;-64
2021/12/16 13:26:40;;;;;;;65.82;14.35;;;;;;;;;;5064277;28;20052;-64
2021/12/16 13:29:21;;;;;;;37.42;13.98;;;;;;;;;;5064456;28;20045;-65
2021/12/16 13:32:16;;;;;;;31.08;13.85;;;;;;;;;;5056674;28;20044;-65
2021/12/16 13:34:43;;;;;;;33.58;13.90;;;;;;;;;;5056259;28;20052;-65
2021/12/16 13:37:21;;;;;;;38.50;15.57;;;;;;;;;;5062454;28;20521;-65
2021/12/16 13:39:49;;;;;;;34.65;15.45;;;;;;;;;;5063457;28;20045;-65
2021/12/16 13:42:16;;;;;;;64.80;14.27;;;;;;;;;;5062538;28;20052;-65
2021/12/16 13:44:48;;;;;;;27.25;15.00;;;;;;;;;;5058561;28;20052;-65
2021/12/16 13:58:53;;;;;;;31.38;13.52;;;;;;;;;;5057299;28;20053;-65
2021/12/16 14:06:20;;;;;;;54.95;16.95;;;;;;;;;;5059757;28;20048;-65
2021/12/16 14:08:49;;;;;;;55.22;16.58;;;;;;;;;;5062555;28;20048;-65
2021/12/16 14:12:05;;;;;;;30.77;14.88;;;;;;;;;;5062240;28;20083;-66
2021/12/16 14:17:42;;;;;;;51.75;16.15;;;;;;;;;;5052642;28;20059;-66
2021/12/16 14:23:09;;;;;;;28.65;15.10;;;;;;;;;;5062817;28;20072;-65
2021/12/16 14:25:44;;;;;;;34.50;15.75;;;;;;;;;;5062585;28;20048;-65
2021/12/16 14:37:17;;;;;;;75.13;15.60;;;;;;;;;;5061702;28;20044;-65
2021/12/16 14:42:19;;;;;;;65.80;17.85;;;;;;;;;;5056019;28;20174;-65
2021/12/16 14:50:16;;;;;;;51.97;18.38;;;;;;;;;;5058131;28;20098;-64
2021/12/16 14:52:42;;;;;;;69.07;19.90;;;;;;;;;;5061174;28;20201;-64
2021/12/16 14:55:13;;;;;;;81.00;19.65;;;;;;;;;;5061918;28;20076;-64
2021/12/16 14:57:42;;;;;;;49.53;17.67;;;;;;;;;;5063077;28;20040;-65
2021/12/16 15:00:29;;;;;;;48.83;18.35;;;;;;;;;;5064910;28;20179;-64
2021/12/16 15:03:02;;;;;;;55.45;17.77;;;;;;;;;;5062363;28;20139;-64
2021/12/16 15:05:31;;;;;;;58.05;18.52;;;;;;;;;;5067869;28;20124;-64
2021/12/16 15:08:05;;;;;;;79.40;17.42;;;;;;;;;;5062492;28;20056;-64
2021/12/16 15:10:32;;;;;;;85.78;18.00;;;;;;;;;;5061336;28;20664;-65
2021/12/16 15:13:06;;;;;;;38.33;15.70;;;;;;;;;;5066272;28;20052;-65
2021/12/16 15:15:42;;;;;;;50.28;17.10;;;;;;;;;;5065869;28;20395;-64
2021/12/16 15:39:46;;;;;;;38.40;16.77;;;;;;;;;;5060525;28;20056;-65
2021/12/16 15:45:09;;;;;;;39.20;17.60;;;;;;;;;;5064513;28;20405;-64
2021/12/16 15:47:40;;;;;;;45.58;15.93;;;;;;;;;;5063549;28;20045;-65
2021/12/16 15:50:07;;;;;;;38.42;14.98;;;;;;;;;;5060263;28;20048;-66
2021/12/16 15:52:45;;;;;;;42.78;17.00;;;;;;;;;;5063225;28;20044;-65
2021/12/16 15:55:19;;;;;;;40.07;15.80;;;;;;;;;;5065026;28;20421;-64
2021/12/16 15:57:45;;;;;;;31.10;16.10;;;;;;;;;;5066052;28;20297;-64
2021/12/16 16:00:18;;;;;;;45.92;15.57;;;;;;;;;;5050315;28;20052;-65
2021/12/16 16:02:44;;;;;;;41.17;16.25;;;;;;;;;;5064345;28;20056;-65
2021/12/16 16:05:11;;;;;;;46.50;16.17;;;;;;;;;;5065905;28;20493;-65
2021/12/16 16:07:42;;;;;;;44.42;16.70;;;;;;;;;;5065731;28;20043;-66
2021/12/16 16:10:11;;;;;;;41.35;15.75;;;;;;;;;;5066390;28;20053;-65
2021/12/16 16:12:37;;;;;;;28.35;14.68;;;;;;;;;;5061347;28;20052;-66
2021/12/16 16:15:16;;;;;;;31.52;15.15;;;;;;;;;;5052006;28;20056;-63
2021/12/16 16:18:13;;;;;;;36.88;15.00;;;;;;;;;;5062733;28;20102;-63
2021/12/16 16:20:42;;;;;;;28.83;13.43;;;;;;;;;;5058044;28;20052;-63
2021/12/16 16:23:10;;;;;;;27.50;13.35;;;;;;;;;;5059081;28;20070;-63
2021/12/16 16:25:37;;;;;;;23.02;13.05;;;;;;;;;;5065448;28;20052;-63
2021/12/16 16:28:04;;;;;;;73.57;14.63;;;;;;;;;;5065419;28;20044;-63
2021/12/16 16:30:31;;;;;;;47.53;13.98;;;;;;;;;;5063131;28;20060;-63
2021/12/16 16:33:05;;;;;;;78.32;14.82;;;;;;;;;;5056211;28;20449;-63
2021/12/16 16:35:32;;;;;;;103.32;17.75;;;;;;;;;;5064462;28;20827;-63
2021/12/16 16:38:08;;;;;;;48.00;14.82;;;;;;;;;;5065525;28;20098;-63
2021/12/16 16:40:36;;;;;;;76.63;16.20;;;;;;;;;;5062076;28;20060;-63
2021/12/16 16:43:14;;;;;;;63.97;14.70;;;;;;;;;;5053750;28;20048;-63
2021/12/16 16:45:43;;;;;;;48.42;14.55;;;;;;;;;;5064924;28;20056;-63
2021/12/16 16:48:29;;;;;;;53.60;15.43;;;;;;;;;;5064256;28;20763;-63
2021/12/16 16:51:06;;;;;;;45.55;14.68;;;;;;;;;;5064112;28;20057;-63
2021/12/16 16:53:42;;;;;;;91.15;15.38;;;;;;;;;;5063731;28;20388;-63
2021/12/16 16:56:08;;;;;;;70.93;14.57;;;;;;;;;;5065429;28;20047;-63
2021/12/16 16:58:35;;;;;;;51.45;15.02;;;;;;;;;;5063019;28;20048;-64
2021/12/16 17:01:02;;;;;;;51.30;14.45;;;;;;;;;;5064282;28;20048;-63
2021/12/16 17:03:28;;;;;;;43.03;15.68;;;;;;;;;;5064741;28;20419;-63
2021/12/16 17:06:02;;;;;;;58.95;15.40;;;;;;;;;;5063848;28;20048;-64
2021/12/16 17:08:31;;;;;;;42.00;14.25;;;;;;;;;;5063980;28;20044;-64
2021/12/16 17:11:01;;;;;;;68.55;15.55;;;;;;;;;;5064160;28;20058;-64
2021/12/16 17:14:16;;;;;;;42.33;13.82;;;;;;;;;;5065256;28;20087;-64
2021/12/16 17:19:16;;;;;;;31.25;14.95;;;;;;;;;;5064032;28;20508;-64
2021/12/16 17:21:47;;;;;;;44.58;14.93;;;;;;;;;;5061983;28;20071;-64
2021/12/16 17:24:15;;;;;;;54.08;15.15;;;;;;;;;;5066345;28;20048;-65
2021/12/16 17:26:48;;;;;;;43.20;15.07;;;;;;;;;;5063880;28;20409;-64
2021/12/16 17:29:19;;;;;;;87.85;15.63;;;;;;;;;;5055978;28;20242;-65
2021/12/16 17:31:49;;;;;;;41.83;15.68;;;;;;;;;;5062599;28;20048;-64
2021/12/16 17:34:17;;;;;;;59.85;15.88;;;;;;;;;;5060782;28;20048;-65
2021/12/16 17:36:53;;;;;;;42.00;15.55;;;;;;;;;;5063189;28;20131;-64
2021/12/16 17:39:21;;;;;;;46.90;16.38;;;;;;;;;;5064163;28;20612;-65
2021/12/16 17:41:59;;;;;;;30.00;15.15;;;;;;;;;;5065196;28;20064;-64
2021/12/16 17:44:28;;;;;;;47.33;17.20;;;;;;;;;;5062309;28;20131;-64
2021/12/16 17:46:57;;;;;;;50.33;17.50;;;;;;;;;;5053458;28;20067;-64
2021/12/16 17:49:24;;;;;;;37.80;17.48;;;;;;;;;;5057104;28;20059;-64
2021/12/16 17:51:52;;;;;;;47.60;18.83;;;;;;;;;;5055332;28;20052;-64
2021/12/16 17:54:19;;;;;;;31.17;17.63;;;;;;;;;;5057860;28;20051;-65
2021/12/16 17:56:50;;;;;;;33.40;18.42;;;;;;;;;;5057774;28;20056;-64
2021/12/16 17:59:17;;;;;;;32.30;16.95;;;;;;;;;;5057797;28;20061;-63
2021/12/16 18:01:44;;;;;;;39.20;17.75;;;;;;;;;;5055344;28;20380;-64
2021/12/16 18:04:14;;;;;;;34.28;18.45;;;;;;;;;;5053654;28;20055;-63
2021/12/16 18:06:45;;;;;;;35.30;17.27;;;;;;;;;;5052549;28;20063;-63